Walnut, California
Current Conditions -  °F | °C
As of 7:53 PM on Saturday 22 Nov 2014 (Local Time) from KCNO Reporting Station
Clear Clear  
Wind Chill: 58°   Ceiling: Unl
Heat Index: 58°   Visibility: 10mi
Dew Point: 53°   Wind: 7mph
Humidity: 84%   Direction: 280°W
Pressure: 30.04"   Gusts: NA
Location:  34.03°N, 117.84°W
Report Text: KCNO 230353Z 28006KT 10SM CLR 14/12 A3004 RMK AO2 SLP171 T01440117
Loading
Personal Weather Stations






























Interactive Weather Map New forecast layout! Learn more

10-Day Weather Forecast

Advertisements
Track Severe Weather on mobile